Fanwood, NJ (07023)

8:57 PM EDT on August 30, 2014 (GMT -0400)
Fire Station #161 | Change Station
CLOSE
Current Station
Personal Weather Station
Location: Scotch Plains, NJ
Elevation: 144 ft
Nearby Weather Stations

Elev 144 ft 40.65 °N, 74.40 °W | Updated 1 second ago

Overcast
Overcast
74.0 °F
Feels Like 75 °F
N
0.0
Wind Variable Wind from SW
Gusts 0.0 mph

Today
High -- | Low -- °F
--% Chance of Precip.
Yesterday
High -- | Low -- °F
Precip. -- in
6:22 AM 7:32 PM
Waxing Crescent, 26% visible
Pressure 30.18 in
Visibility 10.0 miles
Clouds Overcast 3700 ft
Heat Index 75 °F
Dew Point 66 °F
Humidity 75%
Rainfall 0.00 in
Snow Depth Not available.
UV 0.0 out of 12
Pollen 8.90 out of 12
Air Quality Not available.
Flu Activity Not available.
METAR KLDJ 310055Z AUTO 20005KT 10SM OVC037 26/20 A3018 RMK AO2 T02590196

More Conditions Fewer Conditions

Pressure 30.18 in
Visibility 10.0 miles
Clouds Overcast 3700 ft
Heat Index 75 °F
Dew Point 66 °F
Humidity 75%
Rainfall 0.00 in
Snow Depth Not available.
UV 0.0 out of 12
Pollen 8.90 out of 12
Air Quality Not available.
Flu Activity Not available.
METAR KLDJ 310055Z AUTO 20005KT 10SM OVC037 26/20 A3018 RMK AO2 T02590196

More Conditions Fewer Conditions

10-Day Weather Forecast

Almanac

Astronomy

Aug. 30, 2014 Rise Set
Actual Time 6:22 AM EDT 7:32 PM EDT
Civil Twilight 5:54 AM EDT 8:01 PM EDT
Nautical Twilight 5:20 AM EDT 8:34 PM EDT
Astronomical Twilight 4:45 AM EDT 9:09 PM EDT
Moon 11:09 AM EDT (8/30) 10:03 PM EDT (8/30)
Length of Visible Light 14h 06m
Length of Day
13h 10m
Tomorrow will be 2m 34s shorter.
Waxing Crescent, 26% of the Moon is Illuminated
Today
Waxing Crescent
Sep 2
First Quarter
Sep 8
Full
Sep 15
Last Quarter
Sep 24
New

Today's Extremes

State Highs State Lows

Community

WunderPhotos

Upload Photos

1,748,705 photos uploaded!

Nearby

Snow Depth

Station Depth Elevation
No new snow has been reported.

Earthquake Activity

City Distance Mag. Time & Date
No recent earthquake activity has been reported nearby.
Minimum magnitude displayed is 2.5.

Coastal Water Temperatures

Place Temperature
Sandy Hook, NJ 75.0 °F
The Battery, NY 73.9 °F
Bergen Point West Reach, NJ 75.0 °F

Nearby Weather Stations